sensor_id;sensor_type;location;lat;lon;timestamp;temperature;humidity
7206;DHT22;3644;53.480;10.004;2022-09-14T00:01:07;16.40;99.90
7206;DHT22;3644;53.480;10.004;2022-09-14T00:03:33;16.50;99.90
7206;DHT22;3644;53.480;10.004;2022-09-14T00:06:03;16.30;99.90
7206;DHT22;3644;53.480;10.004;2022-09-14T00:08:29;16.40;99.90
7206;DHT22;3644;53.480;10.004;2022-09-14T00:10:54;16.40;99.90
7206;DHT22;3644;53.480;10.004;2022-09-14T00:13:20;16.40;99.90
7206;DHT22;3644;53.480;10.004;2022-09-14T00:15:45;16.50;99.90
7206;DHT22;3644;53.480;10.004;2022-09-14T00:18:11;16.40;99.90
7206;DHT22;3644;53.480;10.004;2022-09-14T00:20:37;16.50;99.90
7206;DHT22;3644;53.480;10.004;2022-09-14T00:23:03;16.40;99.90
7206;DHT22;3644;53.480;10.004;2022-09-14T00:25:29;16.40;99.90
7206;DHT22;3644;53.480;10.004;2022-09-14T00:27:56;16.40;99.90
7206;DHT22;3644;53.480;10.004;2022-09-14T00:30:22;16.50;99.90
7206;DHT22;3644;53.480;10.004;2022-09-14T00:32:49;16.40;99.90
7206;DHT22;3644;53.480;10.004;2022-09-14T00:35:15;16.40;99.90
7206;DHT22;3644;53.480;10.004;2022-09-14T00:37:41;16.50;99.90
7206;DHT22;3644;53.480;10.004;2022-09-14T00:40:07;16.50;99.90
7206;DHT22;3644;53.480;10.004;2022-09-14T00:42:33;16.50;99.90
7206;DHT22;3644;53.480;10.004;2022-09-14T00:45:04;16.50;99.90
7206;DHT22;3644;53.480;10.004;2022-09-14T00:47:32;16.40;99.90
7206;DHT22;3644;53.480;10.004;2022-09-14T00:50:00;16.40;99.90
7206;DHT22;3644;53.480;10.004;2022-09-14T00:52:29;16.40;99.90
7206;DHT22;3644;53.480;10.004;2022-09-14T00:55:07;16.30;99.90
7206;DHT22;3644;53.480;10.004;2022-09-14T00:57:40;16.30;99.90
7206;DHT22;3644;53.480;10.004;2022-09-14T01:00:08;16.40;99.90
7206;DHT22;3644;53.480;10.004;2022-09-14T01:02:35;16.30;99.90
7206;DHT22;3644;53.480;10.004;2022-09-14T01:05:01;16.30;99.90
7206;DHT22;3644;53.480;10.004;2022-09-14T01:16:02;16.30;99.90
7206;DHT22;3644;53.480;10.004;2022-09-14T01:18:36;16.20;99.90
7206;DHT22;3644;53.480;10.004;2022-09-14T01:21:12;16.00;99.90
7206;DHT22;3644;53.480;10.004;2022-09-14T01:29:11;16.20;99.90
7206;DHT22;3644;53.480;10.004;2022-09-14T01:31:46;16.10;99.90
7206;DHT22;3644;53.480;10.004;2022-09-14T01:37:24;15.90;99.90
7206;DHT22;3644;53.480;10.004;2022-09-14T01:40:36;15.80;99.90
7206;DHT22;3644;53.480;10.004;2022-09-14T01:42:45;15.70;99.90
7206;DHT22;3644;53.480;10.004;2022-09-14T01:45:16;15.80;99.90
7206;DHT22;3644;53.480;10.004;2022-09-14T01:48:08;15.80;99.90
7206;DHT22;3644;53.480;10.004;2022-09-14T01:53:47;15.80;99.90
7206;DHT22;3644;53.480;10.004;2022-09-14T01:56:13;15.80;99.90
7206;DHT22;3644;53.480;10.004;2022-09-14T01:58:45;15.70;99.90
7206;DHT22;3644;53.480;10.004;2022-09-14T02:01:17;15.70;99.90
7206;DHT22;3644;53.480;10.004;2022-09-14T02:03:48;15.70;99.90
7206;DHT22;3644;53.480;10.004;2022-09-14T02:08:46;15.60;99.90
7206;DHT22;3644;53.480;10.004;2022-09-14T02:11:12;15.60;99.90
7206;DHT22;3644;53.480;10.004;2022-09-14T02:13:38;15.60;99.90
7206;DHT22;3644;53.480;10.004;2022-09-14T02:16:03;15.60;99.90
7206;DHT22;3644;53.480;10.004;2022-09-14T02:18:29;15.50;99.90
7206;DHT22;3644;53.480;10.004;2022-09-14T02:21:03;15.50;99.90
7206;DHT22;3644;53.480;10.004;2022-09-14T02:23:29;15.50;99.90
7206;DHT22;3644;53.480;10.004;2022-09-14T02:25:55;15.60;99.90
7206;DHT22;3644;53.480;10.004;2022-09-14T02:28:20;15.60;99.90
7206;DHT22;3644;53.480;10.004;2022-09-14T02:31:23;15.60;99.90
7206;DHT22;3644;53.480;10.004;2022-09-14T02:42:35;15.40;99.90
7206;DHT22;3644;53.480;10.004;2022-09-14T02:45:21;15.40;99.90
7206;DHT22;3644;53.480;10.004;2022-09-14T02:47:55;15.30;99.90
7206;DHT22;3644;53.480;10.004;2022-09-14T02:55:35;15.20;99.90
7206;DHT22;3644;53.480;10.004;2022-09-14T02:58:08;15.20;99.90
7206;DHT22;3644;53.480;10.004;2022-09-14T03:00:42;15.10;99.90
7206;DHT22;3644;53.480;10.004;2022-09-14T03:03:10;15.00;99.90
7206;DHT22;3644;53.480;10.004;2022-09-14T03:05:36;14.90;99.90
7206;DHT22;3644;53.480;10.004;2022-09-14T03:08:02;14.90;99.90
7206;DHT22;3644;53.480;10.004;2022-09-14T03:10:28;15.00;99.90
7206;DHT22;3644;53.480;10.004;2022-09-14T03:12:55;14.90;99.90
7206;DHT22;3644;53.480;10.004;2022-09-14T03:15:20;14.90;99.90
7206;DHT22;3644;53.480;10.004;2022-09-14T03:17:47;14.90;99.90
7206;DHT22;3644;53.480;10.004;2022-09-14T03:20:23;14.90;99.90
7206;DHT22;3644;53.480;10.004;2022-09-14T03:22:49;15.00;99.90
7206;DHT22;3644;53.480;10.004;2022-09-14T03:25:15;14.90;99.90
7206;DHT22;3644;53.480;10.004;2022-09-14T03:27:47;14.80;99.90
7206;DHT22;3644;53.480;10.004;2022-09-14T03:30:13;14.90;99.90
7206;DHT22;3644;53.480;10.004;2022-09-14T03:32:38;14.80;99.90
7206;DHT22;3644;53.480;10.004;2022-09-14T03:35:04;14.80;99.90
7206;DHT22;3644;53.480;10.004;2022-09-14T03:37:30;14.80;99.90
7206;DHT22;3644;53.480;10.004;2022-09-14T03:39:55;14.80;99.90
7206;DHT22;3644;53.480;10.004;2022-09-14T03:42:21;14.80;99.90
7206;DHT22;3644;53.480;10.004;2022-09-14T03:44:46;14.90;99.90
7206;DHT22;3644;53.480;10.004;2022-09-14T03:47:12;14.80;99.90
7206;DHT22;3644;53.480;10.004;2022-09-14T03:49:37;14.80;99.90
7206;DHT22;3644;53.480;10.004;2022-09-14T03:52:03;14.80;99.90
7206;DHT22;3644;53.480;10.004;2022-09-14T03:54:29;14.80;99.90
7206;DHT22;3644;53.480;10.004;2022-09-14T03:56:54;14.60;99.90
7206;DHT22;3644;53.480;10.004;2022-09-14T03:59:20;14.70;99.90
7206;DHT22;3644;53.480;10.004;2022-09-14T04:01:46;14.60;99.90
7206;DHT22;3644;53.480;10.004;2022-09-14T04:04:12;14.60;99.90
7206;DHT22;3644;53.480;10.004;2022-09-14T04:06:37;14.60;99.90
7206;DHT22;3644;53.480;10.004;2022-09-14T04:09:03;14.60;99.90
7206;DHT22;3644;53.480;10.004;2022-09-14T04:11:29;14.60;99.90
7206;DHT22;3644;53.480;10.004;2022-09-14T04:14:00;14.50;99.90
7206;DHT22;3644;53.480;10.004;2022-09-14T04:16:26;14.50;99.90
7206;DHT22;3644;53.480;10.004;2022-09-14T04:18:53;14.40;99.90
7206;DHT22;3644;53.480;10.004;2022-09-14T04:21:21;14.40;99.90
7206;DHT22;3644;53.480;10.004;2022-09-14T04:23:47;14.50;99.90
7206;DHT22;3644;53.480;10.004;2022-09-14T04:26:16;14.40;99.90
7206;DHT22;3644;53.480;10.004;2022-09-14T04:28:42;14.40;99.90
7206;DHT22;3644;53.480;10.004;2022-09-14T04:31:09;14.40;99.90
7206;DHT22;3644;53.480;10.004;2022-09-14T04:33:36;14.40;99.90
7206;DHT22;3644;53.480;10.004;2022-09-14T04:36:07;14.30;99.90
7206;DHT22;3644;53.480;10.004;2022-09-14T04:38:35;14.40;99.90
7206;DHT22;3644;53.480;10.004;2022-09-14T04:41:05;14.40;99.90
7206;DHT22;3644;53.480;10.004;2022-09-14T04:43:30;14.40;99.90
7206;DHT22;3644;53.480;10.004;2022-09-14T04:46:26;14.40;99.90
7206;DHT22;3644;53.480;10.004;2022-09-14T04:48:52;14.40;99.90
7206;DHT22;3644;53.480;10.004;2022-09-14T04:51:23;14.30;99.90
7206;DHT22;3644;53.480;10.004;2022-09-14T04:53:51;14.40;99.90
7206;DHT22;3644;53.480;10.004;2022-09-14T04:56:18;14.40;99.90
7206;DHT22;3644;53.480;10.004;2022-09-14T04:58:46;14.40;99.90
7206;DHT22;3644;53.480;10.004;2022-09-14T05:01:14;14.40;99.90
7206;DHT22;3644;53.480;10.004;2022-09-14T05:03:40;14.40;99.90
7206;DHT22;3644;53.480;10.004;2022-09-14T05:06:11;14.50;99.90
7206;DHT22;3644;53.480;10.004;2022-09-14T05:08:37;14.60;99.90
7206;DHT22;3644;53.480;10.004;2022-09-14T05:11:04;14.60;99.90
7206;DHT22;3644;53.480;10.004;2022-09-14T05:13:30;14.70;99.90
7206;DHT22;3644;53.480;10.004;2022-09-14T05:16:07;14.70;99.90
7206;DHT22;3644;53.480;10.004;2022-09-14T05:18:33;14.80;99.90
7206;DHT22;3644;53.480;10.004;2022-09-14T05:21:04;14.80;99.90
7206;DHT22;3644;53.480;10.004;2022-09-14T05:23:30;14.90;99.90
7206;DHT22;3644;53.480;10.004;2022-09-14T05:25:56;14.90;99.90
7206;DHT22;3644;53.480;10.004;2022-09-14T05:28:22;15.00;99.90
7206;DHT22;3644;53.480;10.004;2022-09-14T05:30:48;15.00;99.90
7206;DHT22;3644;53.480;10.004;2022-09-14T05:33:14;14.90;99.90
7206;DHT22;3644;53.480;10.004;2022-09-14T05:35:39;15.00;99.90
7206;DHT22;3644;53.480;10.004;2022-09-14T05:38:05;15.00;99.90
7206;DHT22;3644;53.480;10.004;2022-09-14T05:40:31;15.00;99.90
7206;DHT22;3644;53.480;10.004;2022-09-14T05:42:56;15.10;99.90
7206;DHT22;3644;53.480;10.004;2022-09-14T05:45:22;15.10;99.90
7206;DHT22;3644;53.480;10.004;2022-09-14T05:47:47;15.10;99.90
7206;DHT22;3644;53.480;10.004;2022-09-14T05:50:13;15.20;99.90
7206;DHT22;3644;53.480;10.004;2022-09-14T05:52:39;15.20;99.90
7206;DHT22;3644;53.480;10.004;2022-09-14T05:55:05;15.20;99.90
7206;DHT22;3644;53.480;10.004;2022-09-14T05:57:31;15.20;99.90
7206;DHT22;3644;53.480;10.004;2022-09-14T05:59:57;15.20;99.90
7206;DHT22;3644;53.480;10.004;2022-09-14T06:02:22;15.30;99.90
7206;DHT22;3644;53.480;10.004;2022-09-14T06:04:48;15.40;99.90
7206;DHT22;3644;53.480;10.004;2022-09-14T06:07:13;15.40;99.90
7206;DHT22;3644;53.480;10.004;2022-09-14T06:09:39;15.50;99.90
7206;DHT22;3644;53.480;10.004;2022-09-14T06:12:04;15.50;99.90
7206;DHT22;3644;53.480;10.004;2022-09-14T06:14:30;15.60;99.90
7206;DHT22;3644;53.480;10.004;2022-09-14T06:16:57;15.70;99.90
7206;DHT22;3644;53.480;10.004;2022-09-14T06:19:23;15.70;99.90
7206;DHT22;3644;53.480;10.004;2022-09-14T06:21:49;15.80;99.90
7206;DHT22;3644;53.480;10.004;2022-09-14T06:24:14;15.90;99.90
7206;DHT22;3644;53.480;10.004;2022-09-14T06:26:40;15.90;99.90
7206;DHT22;3644;53.480;10.004;2022-09-14T06:29:05;16.00;99.90
7206;DHT22;3644;53.480;10.004;2022-09-14T06:31:31;16.00;99.90
7206;DHT22;3644;53.480;10.004;2022-09-14T06:33:56;16.10;99.90
7206;DHT22;3644;53.480;10.004;2022-09-14T06:36:24;16.00;99.90
7206;DHT22;3644;53.480;10.004;2022-09-14T06:38:51;16.10;99.90
7206;DHT22;3644;53.480;10.004;2022-09-14T06:41:22;16.10;99.90
7206;DHT22;3644;53.480;10.004;2022-09-14T06:43:48;16.30;99.90
7206;DHT22;3644;53.480;10.004;2022-09-14T06:46:17;16.50;99.90
7206;DHT22;3644;53.480;10.004;2022-09-14T06:48:49;16.50;99.90
7206;DHT22;3644;53.480;10.004;2022-09-14T06:51:28;16.70;99.90
7206;DHT22;3644;53.480;10.004;2022-09-14T06:53:55;16.70;99.90
7206;DHT22;3644;53.480;10.004;2022-09-14T06:56:25;16.90;99.90
7206;DHT22;3644;53.480;10.004;2022-09-14T06:58:51;17.00;99.90
7206;DHT22;3644;53.480;10.004;2022-09-14T07:01:18;17.00;99.90
7206;DHT22;3644;53.480;10.004;2022-09-14T07:03:44;17.10;99.90
7206;DHT22;3644;53.480;10.004;2022-09-14T07:06:16;17.20;99.90
7206;DHT22;3644;53.480;10.004;2022-09-14T07:08:43;17.20;99.90
7206;DHT22;3644;53.480;10.004;2022-09-14T07:11:10;17.30;99.90
7206;DHT22;3644;53.480;10.004;2022-09-14T07:13:37;17.30;99.90
7206;DHT22;3644;53.480;10.004;2022-09-14T07:16:02;17.30;99.90
7206;DHT22;3644;53.480;10.004;2022-09-14T07:18:29;17.20;99.90
7206;DHT22;3644;53.480;10.004;2022-09-14T07:21:01;17.20;99.90
7206;DHT22;3644;53.480;10.004;2022-09-14T07:23:27;17.40;99.90
7206;DHT22;3644;53.480;10.004;2022-09-14T07:26:04;17.50;99.90
7206;DHT22;3644;53.480;10.004;2022-09-14T07:28:30;17.70;99.90
7206;DHT22;3644;53.480;10.004;2022-09-14T07:30:56;17.80;99.90
7206;DHT22;3644;53.480;10.004;2022-09-14T07:33:22;18.00;99.90
7206;DHT22;3644;53.480;10.004;2022-09-14T07:35:47;18.00;99.90
7206;DHT22;3644;53.480;10.004;2022-09-14T07:38:13;18.10;99.90
7206;DHT22;3644;53.480;10.004;2022-09-14T07:40:38;18.10;99.90
7206;DHT22;3644;53.480;10.004;2022-09-14T07:43:04;18.10;99.90
7206;DHT22;3644;53.480;10.004;2022-09-14T07:45:31;18.10;99.90
7206;DHT22;3644;53.480;10.004;2022-09-14T07:47:56;18.10;99.90
7206;DHT22;3644;53.480;10.004;2022-09-14T07:50:22;18.20;99.90
7206;DHT22;3644;53.480;10.004;2022-09-14T07:52:50;18.30;99.90
7206;DHT22;3644;53.480;10.004;2022-09-14T07:55:16;18.10;99.90
7206;DHT22;3644;53.480;10.004;2022-09-14T07:57:42;18.30;99.90
7206;DHT22;3644;53.480;10.004;2022-09-14T08:00:09;18.20;99.90
7206;DHT22;3644;53.480;10.004;2022-09-14T08:02:35;18.20;99.90
7206;DHT22;3644;53.480;10.004;2022-09-14T08:05:01;18.40;99.90
7206;DHT22;3644;53.480;10.004;2022-09-14T08:07:26;18.30;99.90
7206;DHT22;3644;53.480;10.004;2022-09-14T08:09:52;18.30;99.90
7206;DHT22;3644;53.480;10.004;2022-09-14T08:12:17;18.40;99.90
7206;DHT22;3644;53.480;10.004;2022-09-14T08:14:43;18.50;99.90
7206;DHT22;3644;53.480;10.004;2022-09-14T08:17:09;18.50;99.90
7206;DHT22;3644;53.480;10.004;2022-09-14T08:19:35;18.50;99.90
7206;DHT22;3644;53.480;10.004;2022-09-14T08:22:02;18.70;99.90
7206;DHT22;3644;53.480;10.004;2022-09-14T08:24:28;18.90;99.90
7206;DHT22;3644;53.480;10.004;2022-09-14T08:26:54;19.00;99.90
7206;DHT22;3644;53.480;10.004;2022-09-14T08:29:20;19.30;99.90
7206;DHT22;3644;53.480;10.004;2022-09-14T08:31:47;19.40;99.90
7206;DHT22;3644;53.480;10.004;2022-09-14T08:34:14;19.40;99.90
7206;DHT22;3644;53.480;10.004;2022-09-14T08:36:40;19.60;99.90
7206;DHT22;3644;53.480;10.004;2022-09-14T08:39:08;19.50;99.90
7206;DHT22;3644;53.480;10.004;2022-09-14T08:44:14;19.80;99.90
7206;DHT22;3644;53.480;10.004;2022-09-14T08:46:45;19.80;99.90
7206;DHT22;3644;53.480;10.004;2022-09-14T08:52:12;19.90;99.90
7206;DHT22;3644;53.480;10.004;2022-09-14T08:54:39;19.90;99.90
7206;DHT22;3644;53.480;10.004;2022-09-14T08:57:16;19.90;99.90
7206;DHT22;3644;53.480;10.004;2022-09-14T09:00:02;19.90;99.90
7206;DHT22;3644;53.480;10.004;2022-09-14T09:05:22;19.70;99.90
7206;DHT22;3644;53.480;10.004;2022-09-14T09:08:04;19.60;99.90
7206;DHT22;3644;53.480;10.004;2022-09-14T09:10:32;19.70;99.90
7206;DHT22;3644;53.480;10.004;2022-09-14T09:12:59;19.90;99.90
7206;DHT22;3644;53.480;10.004;2022-09-14T09:15:33;20.10;99.90
7206;DHT22;3644;53.480;10.004;2022-09-14T09:18:07;20.20;99.90
7206;DHT22;3644;53.480;10.004;2022-09-14T09:20:36;20.30;99.90
7206;DHT22;3644;53.480;10.004;2022-09-14T09:23:17;20.20;99.90
7206;DHT22;3644;53.480;10.004;2022-09-14T09:26:05;20.10;99.90
7206;DHT22;3644;53.480;10.004;2022-09-14T09:28:39;20.10;99.90
7206;DHT22;3644;53.480;10.004;2022-09-14T09:31:09;20.00;99.90
7206;DHT22;3644;53.480;10.004;2022-09-14T09:33:37;20.10;99.90
7206;DHT22;3644;53.480;10.004;2022-09-14T09:36:05;20.20;99.90
7206;DHT22;3644;53.480;10.004;2022-09-14T09:38:32;20.50;99.90
7206;DHT22;3644;53.480;10.004;2022-09-14T09:41:16;20.80;99.90
7206;DHT22;3644;53.480;10.004;2022-09-14T09:46:30;21.10;99.90
7206;DHT22;3644;53.480;10.004;2022-09-14T09:48:57;21.00;99.90
7206;DHT22;3644;53.480;10.004;2022-09-14T09:54:00;20.60;99.90
7206;DHT22;3644;53.480;10.004;2022-09-14T09:56:29;20.60;99.90
7206;DHT22;3644;53.480;10.004;2022-09-14T09:58:56;20.80;99.90
7206;DHT22;3644;53.480;10.004;2022-09-14T10:01:30;20.90;99.90
7206;DHT22;3644;53.480;10.004;2022-09-14T10:06:30;20.80;99.90
7206;DHT22;3644;53.480;10.004;2022-09-14T10:08:57;20.90;99.90
7206;DHT22;3644;53.480;10.004;2022-09-14T10:11:35;21.00;99.90
7206;DHT22;3644;53.480;10.004;2022-09-14T10:14:03;21.10;99.90
7206;DHT22;3644;53.480;10.004;2022-09-14T10:16:37;21.10;99.90
7206;DHT22;3644;53.480;10.004;2022-09-14T10:19:12;21.30;99.90
7206;DHT22;3644;53.480;10.004;2022-09-14T10:22:14;21.20;99.90
7206;DHT22;3644;53.480;10.004;2022-09-14T10:27:39;21.40;99.90
7206;DHT22;3644;53.480;10.004;2022-09-14T10:30:16;21.30;99.90
7206;DHT22;3644;53.480;10.004;2022-09-14T10:32:55;21.10;99.90
7206;DHT22;3644;53.480;10.004;2022-09-14T10:35:22;21.00;99.90
7206;DHT22;3644;53.480;10.004;2022-09-14T10:38:17;21.20;99.90
7206;DHT22;3644;53.480;10.004;2022-09-14T10:40:55;21.40;99.90
7206;DHT22;3644;53.480;10.004;2022-09-14T10:43:40;21.60;99.90
7206;DHT22;3644;53.480;10.004;2022-09-14T10:46:12;21.90;99.90
7206;DHT22;3644;53.480;10.004;2022-09-14T10:49:03;22.10;99.90
7206;DHT22;3644;53.480;10.004;2022-09-14T10:51:54;22.10;99.90
7206;DHT22;3644;53.480;10.004;2022-09-14T10:59:58;21.60;99.90
7206;DHT22;3644;53.480;10.004;2022-09-14T11:05:26;21.80;99.90
7206;DHT22;3644;53.480;10.004;2022-09-14T11:10:41;22.00;99.90
7206;DHT22;3644;53.480;10.004;2022-09-14T11:18:34;21.70;99.90
7206;DHT22;3644;53.480;10.004;2022-09-14T11:26:35;21.70;99.90
7206;DHT22;3644;53.480;10.004;2022-09-14T11:29:29;21.80;99.90
7206;DHT22;3644;53.480;10.004;2022-09-14T11:32:12;21.60;99.90
7206;DHT22;3644;53.480;10.004;2022-09-14T11:34:44;21.30;99.90
7206;DHT22;3644;53.480;10.004;2022-09-14T11:37:14;21.30;99.90
7206;DHT22;3644;53.480;10.004;2022-09-14T11:40:29;21.10;99.90
7206;DHT22;3644;53.480;10.004;2022-09-14T11:42:39;21.00;99.90
7206;DHT22;3644;53.480;10.004;2022-09-14T11:45:53;20.90;99.90
7206;DHT22;3644;53.480;10.004;2022-09-14T11:48:34;20.80;99.90
7206;DHT22;3644;53.480;10.004;2022-09-14T11:51:07;20.80;99.90
7206;DHT22;3644;53.480;10.004;2022-09-14T11:53:34;20.90;99.90
7206;DHT22;3644;53.480;10.004;2022-09-14T11:56:00;21.00;99.90
7206;DHT22;3644;53.480;10.004;2022-09-14T11:58:27;20.90;99.90
7206;DHT22;3644;53.480;10.004;2022-09-14T12:01:23;20.80;99.90
7206;DHT22;3644;53.480;10.004;2022-09-14T12:11:44;20.40;99.90
7206;DHT22;3644;53.480;10.004;2022-09-14T12:17:12;20.50;99.90
7206;DHT22;3644;53.480;10.004;2022-09-14T12:19:40;20.40;99.90
7206;DHT22;3644;53.480;10.004;2022-09-14T12:25:03;20.50;99.90
7206;DHT22;3644;53.480;10.004;2022-09-14T12:27:32;20.60;99.90
7206;DHT22;3644;53.480;10.004;2022-09-14T12:29:59;20.60;99.90
7206;DHT22;3644;53.480;10.004;2022-09-14T12:32:41;20.90;99.90
7206;DHT22;3644;53.480;10.004;2022-09-14T12:38:37;21.30;99.90
7206;DHT22;3644;53.480;10.004;2022-09-14T12:40:45;21.20;99.90
7206;DHT22;3644;53.480;10.004;2022-09-14T12:59:53;21.50;99.90
7206;DHT22;3644;53.480;10.004;2022-09-14T13:04:56;21.70;99.90
7206;DHT22;3644;53.480;10.004;2022-09-14T13:07:26;21.80;99.90
7206;DHT22;3644;53.480;10.004;2022-09-14T13:09:55;21.90;99.90
7206;DHT22;3644;53.480;10.004;2022-09-14T13:12:35;22.00;99.90
7206;DHT22;3644;53.480;10.004;2022-09-14T13:15:15;22.00;99.90
7206;DHT22;3644;53.480;10.004;2022-09-14T13:20:26;21.60;99.90
7206;DHT22;3644;53.480;10.004;2022-09-14T13:22:52;21.40;99.90
7206;DHT22;3644;53.480;10.004;2022-09-14T13:27:59;21.40;99.90
7206;DHT22;3644;53.480;10.004;2022-09-14T13:30:26;21.50;99.90
7206;DHT22;3644;53.480;10.004;2022-09-14T13:32:54;21.30;99.90
7206;DHT22;3644;53.480;10.004;2022-09-14T13:35:37;21.30;99.90
7206;DHT22;3644;53.480;10.004;2022-09-14T13:38:14;21.30;99.90
7206;DHT22;3644;53.480;10.004;2022-09-14T13:40:40;21.40;99.90
7206;DHT22;3644;53.480;10.004;2022-09-14T13:43:06;21.00;99.90
7206;DHT22;3644;53.480;10.004;2022-09-14T13:45:32;21.00;99.90
7206;DHT22;3644;53.480;10.004;2022-09-14T13:47:58;20.90;99.90
7206;DHT22;3644;53.480;10.004;2022-09-14T13:50:24;20.70;99.90
7206;DHT22;3644;53.480;10.004;2022-09-14T13:52:50;20.60;99.90
7206;DHT22;3644;53.480;10.004;2022-09-14T13:55:20;20.70;99.90
7206;DHT22;3644;53.480;10.004;2022-09-14T14:00:52;20.70;99.90
7206;DHT22;3644;53.480;10.004;2022-09-14T14:03:46;20.60;99.90
7206;DHT22;3644;53.480;10.004;2022-09-14T14:06:27;20.30;99.90
7206;DHT22;3644;53.480;10.004;2022-09-14T14:09:05;20.40;99.90
7206;DHT22;3644;53.480;10.004;2022-09-14T14:11:38;20.60;99.90
7206;DHT22;3644;53.480;10.004;2022-09-14T14:16:39;20.80;99.90
7206;DHT22;3644;53.480;10.004;2022-09-14T14:19:26;20.90;99.90
7206;DHT22;3644;53.480;10.004;2022-09-14T14:24:46;20.70;99.90
7206;DHT22;3644;53.480;10.004;2022-09-14T14:27:29;20.70;99.90
7206;DHT22;3644;53.480;10.004;2022-09-14T14:29:56;20.60;99.90
7206;DHT22;3644;53.480;10.004;2022-09-14T14:32:22;20.60;99.90
7206;DHT22;3644;53.480;10.004;2022-09-14T14:34:48;20.60;99.90
7206;DHT22;3644;53.480;10.004;2022-09-14T14:37:13;20.50;99.90
7206;DHT22;3644;53.480;10.004;2022-09-14T14:39:39;20.50;99.90
7206;DHT22;3644;53.480;10.004;2022-09-14T14:42:05;20.70;99.90
7206;DHT22;3644;53.480;10.004;2022-09-14T14:44:32;20.80;99.90
7206;DHT22;3644;53.480;10.004;2022-09-14T14:46:58;20.80;99.90
7206;DHT22;3644;53.480;10.004;2022-09-14T14:49:23;20.80;99.90
7206;DHT22;3644;53.480;10.004;2022-09-14T14:51:49;20.90;99.90
7206;DHT22;3644;53.480;10.004;2022-09-14T14:54:16;20.90;99.90
7206;DHT22;3644;53.480;10.004;2022-09-14T14:56:44;20.70;99.90
7206;DHT22;3644;53.480;10.004;2022-09-14T15:01:44;20.70;99.90
7206;DHT22;3644;53.480;10.004;2022-09-14T15:04:09;20.70;99.90
7206;DHT22;3644;53.480;10.004;2022-09-14T15:06:35;20.50;99.90
7206;DHT22;3644;53.480;10.004;2022-09-14T15:09:00;20.60;99.90
7206;DHT22;3644;53.480;10.004;2022-09-14T15:11:26;20.60;99.90
7206;DHT22;3644;53.480;10.004;2022-09-14T15:13:51;20.60;99.90
7206;DHT22;3644;53.480;10.004;2022-09-14T15:16:17;20.40;99.90
7206;DHT22;3644;53.480;10.004;2022-09-14T15:18:43;20.50;99.90
7206;DHT22;3644;53.480;10.004;2022-09-14T15:21:09;20.60;99.90
7206;DHT22;3644;53.480;10.004;2022-09-14T15:23:34;20.50;99.90
7206;DHT22;3644;53.480;10.004;2022-09-14T15:26:00;20.40;99.90
7206;DHT22;3644;53.480;10.004;2022-09-14T15:28:26;20.40;99.90
7206;DHT22;3644;53.480;10.004;2022-09-14T15:30:52;20.30;99.90
7206;DHT22;3644;53.480;10.004;2022-09-14T15:33:18;20.20;99.90
7206;DHT22;3644;53.480;10.004;2022-09-14T15:35:43;20.20;99.90
7206;DHT22;3644;53.480;10.004;2022-09-14T15:38:09;20.30;99.90
7206;DHT22;3644;53.480;10.004;2022-09-14T15:40:35;20.50;99.90
7206;DHT22;3644;53.480;10.004;2022-09-14T15:43:01;20.60;99.90
7206;DHT22;3644;53.480;10.004;2022-09-14T15:45:26;20.70;99.90
7206;DHT22;3644;53.480;10.004;2022-09-14T15:47:52;20.60;99.90
7206;DHT22;3644;53.480;10.004;2022-09-14T15:50:17;20.50;99.90
7206;DHT22;3644;53.480;10.004;2022-09-14T15:52:43;20.40;99.90
7206;DHT22;3644;53.480;10.004;2022-09-14T15:55:10;20.50;99.90
7206;DHT22;3644;53.480;10.004;2022-09-14T15:57:37;20.60;99.90
7206;DHT22;3644;53.480;10.004;2022-09-14T16:00:06;20.50;99.90
7206;DHT22;3644;53.480;10.004;2022-09-14T16:02:32;20.40;99.90
7206;DHT22;3644;53.480;10.004;2022-09-14T16:04:58;20.30;99.90
7206;DHT22;3644;53.480;10.004;2022-09-14T16:07:23;20.30;99.90
7206;DHT22;3644;53.480;10.004;2022-09-14T16:09:49;20.30;99.90
7206;DHT22;3644;53.480;10.004;2022-09-14T16:12:14;20.20;99.90
7206;DHT22;3644;53.480;10.004;2022-09-14T16:14:40;20.20;99.90
7206;DHT22;3644;53.480;10.004;2022-09-14T16:17:06;20.30;99.90
7206;DHT22;3644;53.480;10.004;2022-09-14T16:19:32;20.20;99.90
7206;DHT22;3644;53.480;10.004;2022-09-14T16:21:58;20.30;99.90
7206;DHT22;3644;53.480;10.004;2022-09-14T16:24:24;20.20;99.90
7206;DHT22;3644;53.480;10.004;2022-09-14T16:26:50;20.10;99.90
7206;DHT22;3644;53.480;10.004;2022-09-14T16:29:17;20.10;99.90
7206;DHT22;3644;53.480;10.004;2022-09-14T16:31:44;20.10;99.90
7206;DHT22;3644;53.480;10.004;2022-09-14T16:34:18;20.20;99.90
7206;DHT22;3644;53.480;10.004;2022-09-14T16:36:45;20.20;99.90
7206;DHT22;3644;53.480;10.004;2022-09-14T16:39:16;20.30;99.90
7206;DHT22;3644;53.480;10.004;2022-09-14T16:41:43;20.20;99.90
7206;DHT22;3644;53.480;10.004;2022-09-14T16:44:14;20.30;99.90
7206;DHT22;3644;53.480;10.004;2022-09-14T16:46:40;20.20;99.90
7206;DHT22;3644;53.480;10.004;2022-09-14T16:49:06;20.00;99.90
7206;DHT22;3644;53.480;10.004;2022-09-14T16:51:32;19.80;99.90
7206;DHT22;3644;53.480;10.004;2022-09-14T16:53:58;19.60;99.90
7206;DHT22;3644;53.480;10.004;2022-09-14T16:56:28;19.70;99.90
7206;DHT22;3644;53.480;10.004;2022-09-14T16:58:55;19.70;99.90
7206;DHT22;3644;53.480;10.004;2022-09-14T17:01:37;19.70;99.90
7206;DHT22;3644;53.480;10.004;2022-09-14T17:04:13;19.70;99.90
7206;DHT22;3644;53.480;10.004;2022-09-14T17:06:41;19.50;99.90
7206;DHT22;3644;53.480;10.004;2022-09-14T17:09:09;19.50;99.90
7206;DHT22;3644;53.480;10.004;2022-09-14T17:11:36;19.50;99.90
7206;DHT22;3644;53.480;10.004;2022-09-14T17:14:02;19.50;99.90
7206;DHT22;3644;53.480;10.004;2022-09-14T17:16:28;19.50;99.90
7206;DHT22;3644;53.480;10.004;2022-09-14T17:18:57;19.50;99.90
7206;DHT22;3644;53.480;10.004;2022-09-14T17:21:25;19.40;99.90
7206;DHT22;3644;53.480;10.004;2022-09-14T17:23:51;19.40;99.90
7206;DHT22;3644;53.480;10.004;2022-09-14T17:26:19;19.30;99.90
7206;DHT22;3644;53.480;10.004;2022-09-14T17:28:46;19.30;99.90
7206;DHT22;3644;53.480;10.004;2022-09-14T17:31:18;19.30;99.90
7206;DHT22;3644;53.480;10.004;2022-09-14T17:33:45;19.30;99.90
7206;DHT22;3644;53.480;10.004;2022-09-14T17:36:11;19.30;99.90
7206;DHT22;3644;53.480;10.004;2022-09-14T17:38:38;19.30;99.90
7206;DHT22;3644;53.480;10.004;2022-09-14T17:41:13;19.20;99.90
7206;DHT22;3644;53.480;10.004;2022-09-14T17:43:40;19.10;99.90
7206;DHT22;3644;53.480;10.004;2022-09-14T17:46:08;19.10;99.90
7206;DHT22;3644;53.480;10.004;2022-09-14T17:48:36;19.00;99.90
7206;DHT22;3644;53.480;10.004;2022-09-14T17:51:12;18.90;99.90
7206;DHT22;3644;53.480;10.004;2022-09-14T17:53:45;18.90;99.90
7206;DHT22;3644;53.480;10.004;2022-09-14T17:56:13;18.80;99.90
7206;DHT22;3644;53.480;10.004;2022-09-14T17:58:39;18.60;99.90
7206;DHT22;3644;53.480;10.004;2022-09-14T18:03:36;18.50;99.90
7206;DHT22;3644;53.480;10.004;2022-09-14T18:06:03;18.50;99.90
7206;DHT22;3644;53.480;10.004;2022-09-14T18:08:29;18.40;99.90
7206;DHT22;3644;53.480;10.004;2022-09-14T18:10:54;18.40;99.90